Time;durP1;ratioP1;P1;durP2;ratioP2;P2;SDS_P1;SDS_P2;PMS_P1;PMS_P2;Temp;Humidity;BMP_temperature;BMP_pressure;BME280_temperature;BME280_humidity;BME280_pressure;Samples;Min_cycle;Max_cycle;Signal;HPM_P1;HPM_P2
2021/05/17 00:01:56;;;;;;;2.40;1.00;;;11.90;85.10;;;;;;3572006;40;20100;-63
2021/05/17 00:04:44;;;;;;;0.82;0.80;;;11.90;84.90;;;;;;3570433;40;20025;-63
2021/05/17 00:07:10;;;;;;;0.80;0.80;;;11.80;84.80;;;;;;3570306;40;20021;-62
2021/05/17 00:09:36;;;;;;;0.90;0.90;;;11.80;85.20;;;;;;3573176;40;20110;-63
2021/05/17 00:12:04;;;;;;;1.08;1.00;;;11.80;85.40;;;;;;3575775;40;20708;-62
2021/05/17 00:14:30;;;;;;;1.48;1.00;;;11.80;85.40;;;;;;3576817;40;20036;-63
2021/05/17 00:16:56;;;;;;;0.80;0.80;;;11.80;85.50;;;;;;3578616;40;20037;-63
2021/05/17 00:19:23;;;;;;;1.15;0.90;;;11.80;85.50;;;;;;3578086;40;20035;-62
2021/05/17 00:21:49;;;;;;;1.88;1.20;;;11.80;85.60;;;;;;3576244;40;20021;-63
2021/05/17 00:24:16;;;;;;;0.90;0.80;;;11.80;85.70;;;;;;3574395;40;20029;-63
2021/05/17 00:26:42;;;;;;;1.95;1.10;;;11.80;85.60;;;;;;3572430;40;20037;-63
2021/05/17 00:29:09;;;;;;;0.88;0.88;;;11.80;85.50;;;;;;3570394;40;20676;-63
2021/05/17 00:31:39;;;;;;;0.82;0.82;;;11.70;85.40;;;;;;3570662;40;20811;-63
2021/05/17 00:34:06;;;;;;;0.98;0.93;;;11.70;85.80;;;;;;3571238;40;20044;-63
2021/05/17 00:36:33;;;;;;;3.65;1.10;;;11.70;85.80;;;;;;3574332;40;20801;-62
2021/05/17 00:39:00;;;;;;;5.35;1.23;;;11.70;86.00;;;;;;3576520;40;20036;-63
2021/05/17 00:41:29;;;;;;;1.58;1.08;;;11.60;85.80;;;;;;3578042;40;20024;-62
2021/05/17 00:43:55;;;;;;;2.78;1.02;;;11.60;85.50;;;;;;3578185;40;20033;-63
2021/05/17 00:46:24;;;;;;;4.18;1.30;;;11.60;85.30;;;;;;3567910;40;20033;-63
2021/05/17 00:48:50;;;;;;;1.30;1.20;;;11.60;85.30;;;;;;3573087;40;20130;-63
2021/05/17 00:51:17;;;;;;;1.15;1.00;;;11.60;85.70;;;;;;3575671;40;20040;-63
2021/05/17 00:53:43;;;;;;;1.75;1.10;;;11.60;85.70;;;;;;3577169;40;20089;-63
2021/05/17 00:56:10;;;;;;;1.55;1.05;;;11.60;85.40;;;;;;3578423;40;20020;-62
2021/05/17 00:58:40;;;;;;;3.85;1.35;;;11.50;85.80;;;;;;3576301;40;20028;-64
2021/05/17 01:01:07;;;;;;;1.13;1.02;;;11.50;86.30;;;;;;3574123;40;20051;-63
2021/05/17 01:03:34;;;;;;;1.92;1.55;;;11.50;86.30;;;;;;3572056;40;20065;-63
2021/05/17 01:06:12;;;;;;;1.27;1.17;;;11.50;86.50;;;;;;3569348;40;20279;-63
2021/05/17 01:08:47;;;;;;;1.67;1.20;;;11.50;86.40;;;;;;3569962;40;20037;-63
2021/05/17 01:11:16;;;;;;;1.40;1.30;;;11.50;86.60;;;;;;3570408;40;20044;-63
2021/05/17 01:13:43;;;;;;;1.00;1.00;;;11.40;86.40;;;;;;3573462;40;20096;-62
2021/05/17 01:16:11;;;;;;;3.47;0.98;;;11.50;86.80;;;;;;3570964;40;20049;-63
2021/05/17 01:18:40;;;;;;;4.75;1.50;;;11.30;86.90;;;;;;3568867;40;20052;-63
2021/05/17 01:21:10;;;;;;;1.25;1.15;;;11.40;87.50;;;;;;3569495;40;20149;-63
2021/05/17 01:23:55;;;;;;;1.50;1.40;;;11.40;87.90;;;;;;3569886;40;20045;-62
2021/05/17 01:26:23;;;;;;;1.55;1.42;;;11.50;87.90;;;;;;3573285;40;20329;-63
2021/05/17 01:28:52;;;;;;;1.30;1.20;;;11.50;87.70;;;;;;3572255;40;20044;-63
2021/05/17 01:31:19;;;;;;;6.95;1.83;;;11.60;87.80;;;;;;3568749;40;20059;-63
2021/05/17 01:33:46;;;;;;;2.03;1.45;;;11.70;87.50;;;;;;3569959;40;20040;-63
2021/05/17 01:36:15;;;;;;;1.40;1.30;;;11.70;87.50;;;;;;3571497;40;20044;-67
2021/05/17 01:38:48;;;;;;;3.25;1.42;;;11.80;87.40;;;;;;3574536;40;20036;-67
2021/05/17 01:41:17;;;;;;;1.45;1.10;;;11.90;87.20;;;;;;3574722;40;20041;-67
2021/05/17 01:43:49;;;;;;;1.35;1.25;;;11.90;87.40;;;;;;3568810;40;20063;-67
2021/05/17 01:46:21;;;;;;;1.83;1.20;;;12.00;86.30;;;;;;3569510;40;20028;-67
2021/05/17 01:48:54;;;;;;;1.35;1.25;;;12.10;85.60;;;;;;3571104;40;20032;-63
2021/05/17 01:51:20;;;;;;;1.10;1.00;;;12.10;83.70;;;;;;3574372;40;20041;-62
2021/05/17 01:53:48;;;;;;;2.35;1.38;;;12.10;83.90;;;;;;3575281;40;20767;-63
2021/05/17 01:56:17;;;;;;;1.17;0.93;;;12.10;83.90;;;;;;3576148;40;20468;-63
2021/05/17 01:58:43;;;;;;;2.40;1.17;;;12.10;83.20;;;;;;3579422;40;20039;-63
2021/05/17 02:01:16;;;;;;;1.90;1.20;;;12.10;83.50;;;;;;3576094;40;20031;-63
2021/05/17 02:03:44;;;;;;;1.98;1.40;;;12.10;83.70;;;;;;3571740;40;20032;-63
2021/05/17 02:06:12;;;;;;;2.40;1.33;;;12.20;83.90;;;;;;3572591;40;20049;-63
2021/05/17 02:08:42;;;;;;;2.20;1.73;;;12.20;83.80;;;;;;3569746;40;20037;-63
2021/05/17 02:11:11;;;;;;;2.92;1.60;;;12.30;83.80;;;;;;3568925;40;20077;-63
2021/05/17 02:13:38;;;;;;;1.70;1.40;;;12.30;83.10;;;;;;3576801;40;20060;-63
2021/05/17 02:16:05;;;;;;;1.83;1.40;;;12.30;83.20;;;;;;3573518;40;20048;-64
2021/05/17 02:18:35;;;;;;;3.55;1.52;;;12.40;83.30;;;;;;3573442;40;20036;-63
2021/05/17 02:21:01;;;;;;;2.05;1.25;;;12.40;83.40;;;;;;3576577;40;20044;-63
2021/05/17 02:23:27;;;;;;;2.22;1.40;;;12.40;83.30;;;;;;3571896;40;20025;-63
2021/05/17 02:25:52;;;;;;;2.22;1.40;;;12.50;83.60;;;;;;3573540;40;20060;-63
2021/05/17 02:28:20;;;;;;;1.58;1.40;;;12.50;83.70;;;;;;3574770;40;20040;-63
2021/05/17 02:30:47;;;;;;;2.83;1.40;;;12.60;83.60;;;;;;3575982;40;20625;-63
2021/05/17 02:33:14;;;;;;;1.98;1.30;;;12.60;83.50;;;;;;3578022;40;20028;-63
2021/05/17 02:35:41;;;;;;;4.32;1.45;;;12.60;83.40;;;;;;3575831;40;20036;-63
2021/05/17 02:38:09;;;;;;;1.50;1.40;;;12.60;83.50;;;;;;3577706;40;20682;-63
2021/05/17 02:40:38;;;;;;;1.98;1.50;;;12.60;83.30;;;;;;3578407;40;20060;-63
2021/05/17 02:43:10;;;;;;;2.42;1.40;;;12.60;83.20;;;;;;3576351;40;20049;-63
2021/05/17 02:45:48;;;;;;;1.63;1.40;;;12.60;83.30;;;;;;3571714;40;20054;-63
2021/05/17 02:48:14;;;;;;;1.40;1.30;;;12.60;83.10;;;;;;3571095;40;20041;-63
2021/05/17 02:50:45;;;;;;;1.83;1.25;;;12.60;82.90;;;;;;3573069;40;20310;-63
2021/05/17 02:53:32;;;;;;;3.03;1.50;;;12.60;82.70;;;;;;3578092;40;20500;-64
2021/05/17 02:56:09;;;;;;;2.53;1.50;;;12.60;83.10;;;;;;3575018;40;20113;-66
2021/05/17 02:58:45;;;;;;;3.42;1.73;;;12.60;83.10;;;;;;3569710;40;20041;-63
2021/05/17 03:01:28;;;;;;;1.65;1.20;;;12.60;83.00;;;;;;3570187;40;20036;-63
2021/05/17 03:03:58;;;;;;;2.38;1.40;;;12.60;82.90;;;;;;3574089;40;20035;-63
2021/05/17 03:06:36;;;;;;;2.63;1.50;;;12.60;83.20;;;;;;3576081;40;20740;-63
2021/05/17 03:09:05;;;;;;;1.95;1.20;;;12.60;83.00;;;;;;3568137;40;20581;-63
2021/05/17 03:11:44;;;;;;;1.45;1.10;;;12.60;83.10;;;;;;3574285;40;20057;-63
2021/05/17 03:14:14;;;;;;;1.65;1.30;;;12.60;83.10;;;;;;3571392;40;20041;-63
2021/05/17 03:16:45;;;;;;;2.90;1.38;;;12.60;83.00;;;;;;3573343;40;20442;-63
2021/05/17 03:19:12;;;;;;;3.72;1.25;;;12.70;82.80;;;;;;3575143;40;20045;-63
2021/05/17 03:21:39;;;;;;;1.83;1.08;;;12.70;82.90;;;;;;3572966;40;20044;-63
2021/05/17 03:24:06;;;;;;;2.72;1.30;;;12.70;82.60;;;;;;3571067;40;20039;-63
2021/05/17 03:26:33;;;;;;;0.93;0.93;;;12.70;82.60;;;;;;3571363;40;20122;-63
2021/05/17 03:28:58;;;;;;;2.72;1.30;;;12.70;82.50;;;;;;3577710;40;20037;-63
2021/05/17 03:31:24;;;;;;;4.88;0.80;;;12.70;82.80;;;;;;3574786;40;20587;-63
2021/05/17 03:33:50;;;;;;;1.33;0.95;;;12.60;82.40;;;;;;3576835;40;20506;-63
2021/05/17 03:36:16;;;;;;;2.13;0.93;;;12.60;82.80;;;;;;3578750;40;20528;-63
2021/05/17 03:38:41;;;;;;;1.90;1.00;;;12.70;82.70;;;;;;3579780;40;20122;-62
2021/05/17 03:41:07;;;;;;;1.35;0.82;;;12.70;82.40;;;;;;3574859;40;20055;-63
2021/05/17 03:43:33;;;;;;;3.58;1.00;;;12.70;82.50;;;;;;3575051;40;20037;-67
2021/05/17 03:45:59;;;;;;;1.02;0.80;;;12.70;82.40;;;;;;3577463;40;20445;-67
2021/05/17 03:48:25;;;;;;;2.25;1.00;;;12.70;82.40;;;;;;3576543;40;20037;-68
2021/05/17 03:50:50;;;;;;;2.20;0.90;;;12.70;82.20;;;;;;3579702;40;20048;-67
2021/05/17 03:53:17;;;;;;;0.98;0.80;;;12.70;82.00;;;;;;3573011;40;20565;-67
2021/05/17 03:55:44;;;;;;;1.48;0.77;;;12.70;82.20;;;;;;3573683;40;20017;-67
2021/05/17 03:58:10;;;;;;;0.80;0.80;;;12.80;82.10;;;;;;3574259;40;20087;-67
2021/05/17 04:00:35;;;;;;;0.60;0.60;;;12.80;82.00;;;;;;3570607;40;20028;-67
2021/05/17 04:03:05;;;;;;;1.05;0.80;;;12.80;82.00;;;;;;3574575;40;20023;-67
2021/05/17 04:13:46;;;;;;;0.63;0.63;;;12.80;81.80;;;;;;3578593;40;20073;-67
2021/05/17 04:16:11;;;;;;;1.60;0.60;;;12.80;81.60;;;;;;3572223;40;20025;-66
2021/05/17 04:18:38;;;;;;;1.00;0.90;;;12.80;81.70;;;;;;3575965;40;20025;-66
2021/05/17 04:21:04;;;;;;;0.85;0.63;;;12.90;81.70;;;;;;3573117;40;20032;-67
2021/05/17 04:23:30;;;;;;;1.00;0.82;;;12.90;81.60;;;;;;3574977;40;20025;-67
2021/05/17 04:25:56;;;;;;;1.70;0.65;;;13.00;81.50;;;;;;3574523;40;20742;-67
2021/05/17 04:28:22;;;;;;;1.48;0.70;;;13.00;80.50;;;;;;3578792;40;20029;-67
2021/05/17 04:30:48;;;;;;;0.50;0.50;;;13.10;80.00;;;;;;3571190;40;20715;-67
2021/05/17 04:33:13;;;;;;;2.67;1.05;;;13.20;79.60;;;;;;3572428;40;20052;-67
2021/05/17 04:35:39;;;;;;;1.67;0.88;;;13.30;78.90;;;;;;3574122;40;20029;-67
2021/05/17 04:38:05;;;;;;;0.57;0.52;;;13.40;78.50;;;;;;3573167;40;20037;-67
2021/05/17 04:40:31;;;;;;;1.95;0.70;;;13.40;78.20;;;;;;3574866;40;20283;-67
2021/05/17 04:42:57;;;;;;;0.50;0.50;;;13.50;77.60;;;;;;3572891;40;21053;-67
2021/05/17 04:45:24;;;;;;;0.98;0.80;;;13.40;78.00;;;;;;3573018;40;20040;-67
2021/05/17 04:47:53;;;;;;;0.80;0.80;;;13.40;78.60;;;;;;3574111;40;20044;-67
2021/05/17 04:50:20;;;;;;;1.27;0.52;;;13.40;78.90;;;;;;3576015;40;20028;-67
2021/05/17 04:52:46;;;;;;;1.75;0.77;;;13.30;79.00;;;;;;3575568;40;20053;-67
2021/05/17 04:55:12;;;;;;;1.65;0.63;;;13.30;79.50;;;;;;3571254;40;20579;-67
2021/05/17 04:57:38;;;;;;;0.70;0.70;;;13.20;79.50;;;;;;3574231;40;20029;-66
2021/05/17 05:00:07;;;;;;;1.40;0.70;;;13.20;79.70;;;;;;3572184;40;20025;-67
2021/05/17 05:02:32;;;;;;;0.70;0.47;;;13.30;79.00;;;;;;3575731;40;20021;-68
2021/05/17 05:04:58;;;;;;;2.40;0.70;;;13.30;79.20;;;;;;3570700;40;20539;-67
2021/05/17 05:07:24;;;;;;;1.40;0.60;;;13.40;78.60;;;;;;3576191;40;20087;-67
2021/05/17 05:09:50;;;;;;;3.65;0.80;;;13.50;77.90;;;;;;3574846;40;20344;-67
2021/05/17 05:12:15;;;;;;;1.05;0.50;;;13.50;76.90;;;;;;3573280;40;20029;-67
2021/05/17 05:14:41;;;;;;;2.28;0.73;;;13.70;75.60;;;;;;3571918;40;20037;-67
2021/05/17 05:17:07;;;;;;;1.88;0.68;;;13.90;74.60;;;;;;3571033;40;20809;-67
2021/05/17 05:19:33;;;;;;;1.92;0.50;;;14.30;72.60;;;;;;3575750;40;20095;-67
2021/05/17 05:21:59;;;;;;;1.20;0.63;;;14.70;71.60;;;;;;3572132;40;20036;-67
2021/05/17 05:24:25;;;;;;;1.63;0.50;;;14.90;71.80;;;;;;3573330;40;20040;-67
2021/05/17 05:34:25;;;;;;;4.05;0.80;;;15.70;66.90;;;;;;3576694;40;20044;-67
2021/05/17 05:36:51;;;;;;;1.73;0.70;;;16.00;66.90;;;;;;3574864;40;20057;-67
2021/05/17 05:39:16;;;;;;;0.40;0.40;;;16.20;64.20;;;;;;3575897;40;20637;-67
2021/05/17 05:41:42;;;;;;;1.75;0.68;;;16.50;62.50;;;;;;3572443;40;20036;-67
2021/05/17 05:44:08;;;;;;;0.60;0.50;;;16.70;62.50;;;;;;3576015;40;20080;-68
2021/05/17 05:46:34;;;;;;;1.30;0.40;;;16.90;61.90;;;;;;3572873;40;20037;-67
2021/05/17 05:48:59;;;;;;;0.68;0.50;;;16.90;61.80;;;;;;3568186;40;20520;-67
2021/05/17 05:51:28;;;;;;;1.38;0.50;;;17.00;61.80;;;;;;3574991;40;20480;-67
2021/05/17 05:53:55;;;;;;;2.78;0.50;;;17.50;60.80;;;;;;3579734;40;20105;-68
2021/05/17 05:56:21;;;;;;;1.85;0.50;;;17.90;59.60;;;;;;3578627;40;20183;-67
2021/05/17 05:58:48;;;;;;;5.15;0.50;;;18.20;59.40;;;;;;3577869;40;20117;-67
2021/05/17 06:01:14;;;;;;;1.33;0.50;;;18.40;58.60;;;;;;3575036;40;20025;-67
2021/05/17 06:03:40;;;;;;;1.13;0.60;;;18.60;58.20;;;;;;3574598;40;20076;-67
2021/05/17 06:06:08;;;;;;;2.47;0.55;;;18.80;57.10;;;;;;3575035;40;20040;-68
2021/05/17 06:08:35;;;;;;;0.95;0.50;;;18.80;56.60;;;;;;3571459;40;20398;-68
2021/05/17 06:11:01;;;;;;;0.93;0.50;;;18.70;56.50;;;;;;3561188;40;20033;-67
2021/05/17 06:13:28;;;;;;;1.55;0.40;;;18.60;56.50;;;;;;3574160;40;20036;-68
2021/05/17 06:15:54;;;;;;;1.75;0.47;;;18.20;56.80;;;;;;3575377;40;20040;-68
2021/05/17 06:18:19;;;;;;;4.78;0.65;;;17.80;57.90;;;;;;3571164;40;20034;-67
2021/05/17 06:20:45;;;;;;;0.38;0.30;;;17.50;60.90;;;;;;3570517;40;20045;-67
2021/05/17 06:23:14;;;;;;;0.73;0.30;;;17.40;60.00;;;;;;3574937;40;20080;-67
2021/05/17 06:25:41;;;;;;;2.10;0.40;;;17.30;61.40;;;;;;3572406;40;20025;-67
2021/05/17 06:28:07;;;;;;;0.90;0.47;;;17.30;61.30;;;;;;3574174;40;20697;-66
2021/05/17 06:30:43;;;;;;;0.88;0.50;;;17.40;60.60;;;;;;3574251;40;20101;-68
2021/05/17 06:33:09;;;;;;;0.93;0.50;;;17.30;61.00;;;;;;3570507;40;20044;-67
2021/05/17 06:35:43;;;;;;;0.70;0.38;;;17.30;59.80;;;;;;3571414;40;20044;-67
2021/05/17 06:38:09;;;;;;;1.23;0.50;;;17.30;61.20;;;;;;3571373;40;20040;-63
2021/05/17 06:40:35;;;;;;;0.30;0.30;;;17.40;60.30;;;;;;3574913;40;20040;-62
2021/05/17 06:43:00;;;;;;;1.80;0.60;;;17.50;60.70;;;;;;3573378;40;20106;-63
2021/05/17 06:45:26;;;;;;;1.08;0.40;;;17.70;60.40;;;;;;3574872;40;20028;-62
2021/05/17 06:47:53;;;;;;;1.10;0.40;;;17.70;59.90;;;;;;3575899;40;20033;-63
2021/05/17 06:50:19;;;;;;;0.55;0.30;;;17.60;59.90;;;;;;3576202;40;20101;-63
2021/05/17 06:52:45;;;;;;;1.95;0.50;;;17.50;59.80;;;;;;3575984;40;20028;-63
2021/05/17 06:55:16;;;;;;;1.45;0.47;;;17.40;60.00;;;;;;3573385;40;20028;-63
2021/05/17 07:00:11;;;;;;;0.35;0.20;;;17.30;59.30;;;;;;3575730;40;20447;-63
2021/05/17 07:02:38;;;;;;;2.13;0.50;;;17.20;60.10;;;;;;3577380;40;20029;-63
2021/05/17 07:05:05;;;;;;;2.15;0.60;;;17.10;60.50;;;;;;3572767;40;20090;-63
2021/05/17 07:12:51;;;;;;;1.77;0.45;;;17.20;61.90;;;;;;3573739;40;20074;-63
2021/05/17 07:15:17;;;;;;;1.42;0.60;;;17.20;61.90;;;;;;3574625;40;20035;-63
2021/05/17 07:17:44;;;;;;;1.50;0.60;;;17.20;60.60;;;;;;3574325;40;20033;-64
2021/05/17 07:20:15;;;;;;;0.40;0.40;;;17.10;61.20;;;;;;3577439;40;20758;-63
2021/05/17 07:25:26;;;;;;;0.80;0.50;;;17.20;61.00;;;;;;3577585;40;20032;-63
2021/05/17 07:27:52;;;;;;;2.08;0.52;;;17.30;61.30;;;;;;3577703;40;20024;-62
2021/05/17 07:30:18;;;;;;;1.00;0.68;;;17.40;61.00;;;;;;3577078;40;20065;-64
2021/05/17 07:32:44;;;;;;;1.25;0.40;;;17.40;60.60;;;;;;3579820;40;20167;-64
2021/05/17 07:35:10;;;;;;;0.57;0.40;;;17.50;59.70;;;;;;3581874;40;20044;-64
2021/05/17 07:37:36;;;;;;;1.83;0.52;;;17.40;58.80;;;;;;3579322;40;20038;-63
2021/05/17 07:40:03;;;;;;;1.10;0.40;;;17.30;60.20;;;;;;3577581;40;20029;-64
2021/05/17 07:42:28;;;;;;;0.85;0.55;;;17.40;60.60;;;;;;3574985;40;20048;-63
2021/05/17 07:44:54;;;;;;;0.85;0.50;;;17.60;59.20;;;;;;3575258;40;20210;-63
2021/05/17 07:47:20;;;;;;;1.17;0.32;;;17.60;57.80;;;;;;3573964;40;20029;-63
2021/05/17 07:49:53;;;;;;;2.00;0.60;;;17.50;59.00;;;;;;3570165;40;20036;-63
2021/05/17 07:52:19;;;;;;;0.95;0.63;;;17.50;59.40;;;;;;3572855;40;20740;-63
2021/05/17 07:54:45;;;;;;;4.53;0.60;;;17.40;60.00;;;;;;3575929;40;20031;-62
2021/05/17 07:57:10;;;;;;;3.25;0.28;;;17.60;59.30;;;;;;3577608;40;20333;-63
2021/05/17 07:59:36;;;;;;;17.80;1.73;;;17.70;59.00;;;;;;3572873;40;20029;-64
2021/05/17 08:02:03;;;;;;;17.90;1.45;;;17.70;60.60;;;;;;3576795;40;20066;-63
2021/05/17 08:04:28;;;;;;;12.18;0.98;;;17.70;60.00;;;;;;3574845;40;20025;-64
2021/05/17 08:06:55;;;;;;;4.55;0.70;;;17.70;59.40;;;;;;3575406;40;20021;-63
2021/05/17 08:09:21;;;;;;;1.15;0.35;;;17.80;59.80;;;;;;3576271;40;20025;-63
2021/05/17 08:11:49;;;;;;;0.85;0.32;;;17.90;58.10;;;;;;3576019;40;20037;-62
2021/05/17 08:14:15;;;;;;;0.50;0.50;;;17.90;58.70;;;;;;3579167;40;20091;-64
2021/05/17 08:16:41;;;;;;;1.27;0.55;;;17.90;59.80;;;;;;3578073;40;20381;-63
2021/05/17 08:19:07;;;;;;;3.47;0.60;;;18.20;59.00;;;;;;3575130;40;20118;-64
2021/05/17 08:21:33;;;;;;;1.85;0.50;;;18.30;58.90;;;;;;3576406;40;20041;-64
2021/05/17 08:23:59;;;;;;;1.33;0.40;;;18.40;57.70;;;;;;3578340;40;20736;-64
2021/05/17 08:26:25;;;;;;;1.70;1.10;;;18.40;57.60;;;;;;3571368;40;20307;-63
2021/05/17 08:28:51;;;;;;;4.13;0.40;;;18.40;58.20;;;;;;3572535;40;20027;-63
2021/05/17 08:31:19;;;;;;;0.65;0.30;;;18.40;56.80;;;;;;3575797;40;20636;-63
2021/05/17 08:33:45;;;;;;;0.80;0.40;;;18.60;56.60;;;;;;3575433;40;20977;-63
2021/05/17 08:36:11;;;;;;;3.53;0.68;;;18.60;55.90;;;;;;3577895;40;20024;-64
2021/05/17 08:38:38;;;;;;;2.28;0.82;;;18.70;56.20;;;;;;3581102;40;20075;-64
2021/05/17 08:41:04;;;;;;;1.17;0.40;;;18.70;55.80;;;;;;3572104;40;20049;-62
2021/05/17 08:43:30;;;;;;;1.08;0.50;;;18.60;56.60;;;;;;3575743;40;20045;-63
2021/05/17 08:45:56;;;;;;;2.13;0.43;;;18.60;56.20;;;;;;3575856;40;20113;-64
2021/05/17 08:48:23;;;;;;;1.67;0.40;;;18.60;55.90;;;;;;3574286;40;20484;-64
2021/05/17 08:50:49;;;;;;;0.22;0.22;;;18.70;56.80;;;;;;3571930;40;20047;-63
2021/05/17 08:53:15;;;;;;;0.50;0.30;;;19.00;57.00;;;;;;3574263;40;20036;-63
2021/05/17 08:55:41;;;;;;;0.57;0.40;;;19.20;57.10;;;;;;3575001;40;20141;-64
2021/05/17 08:58:08;;;;;;;1.27;0.30;;;19.40;56.10;;;;;;3574026;40;20033;-63
2021/05/17 09:00:34;;;;;;;0.63;0.40;;;19.60;53.80;;;;;;3577706;40;20029;-65
2021/05/17 09:02:59;;;;;;;0.63;0.40;;;19.60;54.70;;;;;;3576525;40;20409;-64
2021/05/17 09:05:32;;;;;;;0.63;0.20;;;19.50;53.60;;;;;;3572428;40;20296;-63
2021/05/17 09:08:01;;;;;;;1.10;0.40;;;19.40;54.30;;;;;;3574456;40;20544;-64
2021/05/17 09:10:36;;;;;;;1.45;0.28;;;19.40;54.60;;;;;;3555458;40;20122;-63
2021/05/17 09:13:16;;;;;;;1.43;0.30;;;19.40;55.10;;;;;;3562837;40;20030;-63
2021/05/17 09:15:48;;;;;;;0.47;0.40;;;19.40;55.30;;;;;;3562088;40;20037;-63
2021/05/17 09:18:22;;;;;;;1.08;0.47;;;19.30;54.80;;;;;;3563185;40;20164;-63
2021/05/17 09:20:51;;;;;;;2.80;0.47;;;19.30;54.80;;;;;;3561032;40;20091;-64
2021/05/17 09:23:26;;;;;;;1.00;0.50;;;19.30;55.70;;;;;;3562683;40;20044;-64
2021/05/17 09:25:57;;;;;;;1.23;0.50;;;19.40;56.10;;;;;;3562623;40;20172;-63
2021/05/17 09:28:34;;;;;;;0.40;0.30;;;19.40;56.10;;;;;;3563023;40;20025;-64
2021/05/17 09:31:08;;;;;;;1.05;0.80;;;19.40;55.20;;;;;;3562817;40;20131;-62
2021/05/17 09:33:41;;;;;;;2.55;0.35;;;19.20;56.00;;;;;;3557066;40;20609;-63
2021/05/17 09:36:37;;;;;;;1.23;0.40;;;19.10;55.60;;;;;;3561634;40;20756;-64
2021/05/17 09:39:08;;;;;;;2.53;0.43;;;19.00;55.90;;;;;;3560675;40;20042;-64
2021/05/17 09:41:45;;;;;;;0.65;0.30;;;19.00;54.20;;;;;;3561526;40;20049;-65
2021/05/17 09:44:13;;;;;;;1.02;0.38;;;19.10;55.40;;;;;;3561105;40;20701;-66
2021/05/17 09:47:08;;;;;;;0.47;0.20;;;19.30;55.60;;;;;;3561115;40;20108;-66
2021/05/17 09:49:49;;;;;;;1.15;0.50;;;19.40;54.80;;;;;;3557003;40;20384;-65
2021/05/17 09:52:20;;;;;;;0.40;0.20;;;19.20;55.70;;;;;;3566491;40;20034;-63
2021/05/17 09:54:52;;;;;;;0.90;0.30;;;19.20;55.60;;;;;;3560426;40;20029;-63
2021/05/17 09:57:20;;;;;;;1.55;0.98;;;19.20;55.00;;;;;;3563496;40;20061;-63
2021/05/17 09:59:47;;;;;;;0.50;0.45;;;19.10;54.40;;;;;;3560152;40;20147;-70
2021/05/17 10:02:29;;;;;;;4.47;0.60;;;19.10;54.10;;;;;;3559415;40;20089;-64
2021/05/17 10:04:56;;;;;;;0.75;0.60;;;19.40;55.20;;;;;;3558987;40;20057;-65
2021/05/17 10:07:22;;;;;;;0.55;0.20;;;19.80;52.90;;;;;;3560250;40;20052;-64
2021/05/17 10:09:48;;;;;;;1.60;0.65;;;20.40;51.20;;;;;;3559927;40;20071;-64
2021/05/17 10:12:15;;;;;;;1.60;0.73;;;20.80;50.20;;;;;;3560869;40;20404;-64
2021/05/17 10:14:41;;;;;;;1.30;0.85;;;20.70;49.10;;;;;;3557770;40;20065;-63
2021/05/17 10:17:07;;;;;;;0.77;0.50;;;20.50;50.00;;;;;;3559129;40;20054;-64
2021/05/17 10:19:33;;;;;;;1.70;0.40;;;20.30;51.40;;;;;;3560629;40;20571;-66
2021/05/17 10:21:59;;;;;;;1.65;0.40;;;20.20;50.50;;;;;;3560252;40;20311;-64
2021/05/17 10:24:25;;;;;;;0.55;0.30;;;20.10;50.60;;;;;;3560542;40;20053;-64
2021/05/17 10:26:51;;;;;;;0.60;0.30;;;20.00;50.70;;;;;;3561081;40;20056;-65
2021/05/17 10:29:17;;;;;;;1.27;0.40;;;20.10;50.20;;;;;;3560957;40;20507;-63
2021/05/17 10:31:53;;;;;;;0.70;0.60;;;20.10;51.30;;;;;;3560623;40;20123;-64
2021/05/17 10:34:18;;;;;;;2.17;0.60;;;20.10;50.40;;;;;;3560743;40;20382;-65
2021/05/17 10:37:02;;;;;;;0.95;0.55;;;20.00;50.70;;;;;;3561087;40;20033;-65
2021/05/17 10:39:39;;;;;;;1.05;0.32;;;20.00;50.20;;;;;;3561314;40;20018;-65
2021/05/17 10:48:11;;;;;;;4.25;0.75;;;19.70;51.40;;;;;;3559866;40;20420;-64
2021/05/17 10:50:39;;;;;;;1.45;0.90;;;19.80;51.50;;;;;;3561083;40;20048;-65
2021/05/17 10:53:05;;;;;;;0.90;0.50;;;20.00;50.50;;;;;;3561390;40;20041;-65
2021/05/17 10:55:34;;;;;;;0.32;0.32;;;20.40;49.20;;;;;;3559063;40;20057;-65
2021/05/17 11:00:32;;;;;;;0.88;0.40;;;20.70;48.40;;;;;;3560217;40;20028;-66
2021/05/17 11:03:20;;;;;;;1.45;0.43;;;20.60;48.50;;;;;;3560453;40;20395;-65
2021/05/17 11:05:47;;;;;;;1.90;1.35;;;20.50;49.00;;;;;;3567584;40;20811;-65
2021/05/17 11:08:14;;;;;;;3.58;1.15;;;20.40;48.50;;;;;;3567624;40;20175;-68
2021/05/17 11:10:43;;;;;;;2.25;0.40;;;20.30;49.70;;;;;;3561375;40;20041;-66
2021/05/17 11:13:13;;;;;;;1.38;0.80;;;20.40;49.60;;;;;;3561398;40;20114;-65
2021/05/17 11:15:47;;;;;;;1.38;0.65;;;20.40;48.80;;;;;;3561141;40;20036;-71
2021/05/17 11:18:13;;;;;;;0.93;0.38;;;20.60;50.50;;;;;;3560339;40;20045;-66
2021/05/17 11:20:39;;;;;;;1.25;0.35;;;20.70;48.30;;;;;;3562040;40;20131;-66
2021/05/17 11:23:07;;;;;;;1.67;0.60;;;20.90;48.60;;;;;;3560690;40;20057;-66
2021/05/17 11:28:38;;;;;;;2.38;0.50;;;21.10;47.10;;;;;;3560446;40;20037;-64
2021/05/17 11:31:24;;;;;;;0.70;0.35;;;21.10;48.30;;;;;;3559521;40;20039;-63
2021/05/17 11:33:58;;;;;;;1.13;0.60;;;21.10;49.00;;;;;;3558339;40;20119;-65
2021/05/17 11:36:31;;;;;;;2.35;0.68;;;21.20;49.20;;;;;;3561258;40;20092;-65
2021/05/17 11:39:51;;;;;;;1.67;0.90;;;21.20;48.90;;;;;;3559644;40;20083;-65
2021/05/17 11:41:58;;;;;;;3.40;0.50;;;21.10;49.40;;;;;;3558506;40;20030;-65
2021/05/17 11:44:54;;;;;;;0.63;0.50;;;21.00;48.00;;;;;;3560784;40;20113;-65
2021/05/17 11:47:21;;;;;;;1.90;1.15;;;20.80;49.10;;;;;;3568244;40;20659;-65
2021/05/17 11:49:48;;;;;;;1.27;0.30;;;20.80;48.70;;;;;;3561524;40;20036;-65
2021/05/17 11:52:18;;;;;;;3.22;0.50;;;20.70;48.90;;;;;;3559942;40;20045;-65
2021/05/17 11:54:53;;;;;;;8.90;1.15;;;20.80;47.40;;;;;;3559388;40;20026;-64
2021/05/17 11:57:40;;;;;;;2.85;0.80;;;20.70;47.40;;;;;;3567298;40;20036;-64
2021/05/17 12:00:15;;;;;;;0.77;0.47;;;20.70;48.30;;;;;;3559890;40;20394;-65
2021/05/17 12:02:45;;;;;;;1.83;0.60;;;20.90;49.80;;;;;;3558941;40;20036;-64
2021/05/17 12:05:11;;;;;;;0.65;0.40;;;21.00;48.30;;;;;;3562638;40;20056;-65
2021/05/17 12:07:48;;;;;;;1.95;0.45;;;21.00;47.30;;;;;;3560272;40;20096;-65
2021/05/17 12:10:15;;;;;;;0.65;0.50;;;21.00;47.80;;;;;;3558510;40;20899;-64
2021/05/17 12:12:41;;;;;;;2.08;0.40;;;21.00;47.00;;;;;;3559852;40;20528;-65
2021/05/17 12:15:10;;;;;;;1.08;0.50;;;20.90;47.70;;;;;;3559441;40;20078;-65
2021/05/17 12:17:37;;;;;;;0.85;0.55;;;20.70;48.70;;;;;;3559962;40;20022;-64
2021/05/17 12:20:05;;;;;;;0.55;0.52;;;20.60;49.00;;;;;;3559948;40;20029;-64
2021/05/17 12:22:35;;;;;;;2.13;0.90;;;20.60;49.50;;;;;;3559478;40;20025;-64
2021/05/17 12:25:11;;;;;;;1.13;0.47;;;20.60;49.50;;;;;;3559349;40;20037;-65
2021/05/17 12:27:37;;;;;;;0.80;0.60;;;20.60;48.60;;;;;;3560300;40;20048;-65
2021/05/17 12:30:06;;;;;;;2.33;0.75;;;20.70;47.60;;;;;;3558960;40;20017;-65
2021/05/17 12:32:38;;;;;;;2.50;0.60;;;20.80;45.10;;;;;;3559867;40;20042;-67
2021/05/17 12:35:10;;;;;;;2.53;0.60;;;20.60;47.30;;;;;;3560742;40;20029;-64
2021/05/17 12:37:46;;;;;;;1.95;0.60;;;20.60;48.10;;;;;;3558938;40;20158;-65
2021/05/17 12:40:24;;;;;;;;;;;20.60;45.30;;;;;;3560310;40;20040;-65
2021/05/17 12:43:21;;;;;;;1.00;0.70;;;20.60;46.80;;;;;;3559438;40;19933;-64
2021/05/17 12:45:47;;;;;;;1.13;0.60;;;20.70;46.10;;;;;;3558901;40;20071;-64
2021/05/17 12:48:21;;;;;;;1.63;0.68;;;20.60;47.00;;;;;;3560184;40;20331;-65
2021/05/17 12:50:50;;;;;;;2.35;0.70;;;20.70;48.20;;;;;;3560480;40;20029;-65
2021/05/17 12:53:19;;;;;;;1.92;0.90;;;20.80;46.00;;;;;;3553725;40;20088;-65
2021/05/17 12:55:50;;;;;;;1.50;0.90;;;20.80;46.70;;;;;;3560089;40;20036;-65
2021/05/17 12:58:40;;;;;;;1.00;0.60;;;20.80;44.60;;;;;;3559598;40;20787;-64
2021/05/17 13:01:14;;;;;;;0.52;0.40;;;20.90;46.60;;;;;;3565869;40;20072;-65
2021/05/17 13:03:50;;;;;;;2.05;0.70;;;20.90;47.50;;;;;;3559946;40;20164;-65
2021/05/17 13:06:27;;;;;;;1.85;0.60;;;20.90;46.30;;;;;;3560145;40;20034;-65
2021/05/17 13:09:02;;;;;;;1.48;0.70;;;21.00;47.00;;;;;;3559510;40;20576;-65
2021/05/17 13:11:39;;;;;;;2.20;0.60;;;20.90;46.30;;;;;;3558219;40;20081;-64
2021/05/17 13:14:14;;;;;;;0.85;0.47;;;21.00;46.90;;;;;;3559833;40;20264;-65
2021/05/17 13:16:58;;;;;;;1.65;0.52;;;21.00;44.90;;;;;;3558085;40;20059;-65
2021/05/17 13:33:07;;;;;;;2.10;0.82;;;20.70;44.70;;;;;;3558302;40;20029;-65
2021/05/17 13:35:33;;;;;;;0.80;0.52;;;20.90;45.60;;;;;;3558622;40;20782;-65
2021/05/17 13:37:59;;;;;;;0.80;0.38;;;21.20;43.90;;;;;;3559544;40;20677;-65
2021/05/17 13:40:25;;;;;;;2.75;0.63;;;21.40;43.00;;;;;;3557208;40;20042;-65
2021/05/17 13:42:52;;;;;;;1.98;0.70;;;21.40;43.10;;;;;;3559263;40;20034;-66
2021/05/17 13:45:18;;;;;;;1.15;0.60;;;21.50;45.80;;;;;;3558443;40;20036;-66
2021/05/17 13:47:44;;;;;;;0.98;0.40;;;21.50;42.90;;;;;;3558686;40;20044;-65
2021/05/17 13:50:13;;;;;;;3.42;0.80;;;21.50;42.50;;;;;;3559797;40;20792;-65